sim
Sign-in with your pilot id or email,
or register
Callsign
Passwort

Schedule Details

Flight Number: RYR6442 (3)
Departure: Brussels South Charleroi Airport (EBCI) at 12:30
Arrival: Fuerteventura Airport (GCFV) at 16:50
Route: Ryanair Passenger Schedule. Enter filed route here before submitting Pirep.

Weather Information
Getting current METAR information for EBCI 160220Z 19005KT CAVOK 07/M00 Q1026 NOSIG
Getting current METAR information for GCFV 160230Z AUTO 28005KT 9999 NCD 13/10 Q1018

Schedule Frequency

Route Map